Station: Puckapunyal-Lyon Hill (Defence)  

  Atmospheric Gas Attenuation - ITU Rec 676-11   ----------------- dB/100km -----------------
Date Time Temp RH % AH g/m3 Dew Point Wind Direction Speed kph Gust kph Barometer mB Rainfall Since 9am 24GHz 47GHz 76GHz 122GHz 134GHz 241GHz
08/05 12:30 15.3 66 8.62 9 19 32 1013.1 0 19.6 25.5 39.1 102.7 96.8 333.0
08/05 12:20 15.5 65 8.59 8.9 28 35 1013.1 0 19.5 25.4 38.9 102.1 96.1 330.8
08/05 12:10 15.2 67 8.7 9.1 17 22 1013.1 0 19.7 25.6 39.5 103.7 97.9 337.0
08/05 12:00 15.8 63 8.48 8.8 19 30 1013.1 0 19.2 25.1 38.3 100.6 94.4 324.6
08/05 11:50 15.6 62 8.25 8.3 24 30 1013.1 0 18.8 24.8 37.5 98.4 91.7 315.1
08/05 11:40 15.4 63 8.28 8.4 24 39 1013.1 0 18.8 24.9 37.7 99.0 92.3 317.3
08/05 11:30 15.7 62 8.3 8.4 20 37 1013.1 0 18.9 24.9 37.7 98.8 92.2 317.0
08/05 11:20 15.8 62 8.35 8.5 15 20 1013.1 0 19.0 24.9 37.8 99.2 92.7 318.8
08/05 11:10 16 64 8.72 9.2 11 15 1013.1 0 19.7 25.4 39.2 102.8 97.2 334.5
08/05 11:00 15.4 65 8.54 8.9 19 33 1013.1 0 19.4 25.3 38.8 101.7 95.6 328.9
08/05 10:50 15.6 64 8.51 8.8 15 19 1013.1 0 19.3 25.2 38.5 101.1 95.0 326.8
08/05 10:40 15.1 63 8.13 8.1 32 39 1013.1 0 18.5 24.8 37.3 97.8 90.7 311.7
08/05 10:30 15.4 66 8.67 9.1 26 43 1013.1 0 19.7 25.5 39.3 103.1 97.3 334.8
08/05 10:20 15 72 9.23 10 19 20 1013.1 0 20.9 26.6 41.7 109.6 105.2 362.3
08/05 10:10 14.2 74 9.04 9.6 9 11 1013.1 0 20.5 26.5 41.4 108.6 103.7 357.1
08/05 10:00 14.1 79 9.59 10.5 9 19 1013.1 0 21.7 27.4 43.7 114.8 111.3 383.6
08/05 09:50 13.7 78 9.24 9.9 6 9 1013.1 0 21.0 27.0 42.4 111.5 107.1 368.9
08/05 09:40 13.8 76 9.06 9.6 11 17 1013.1 0 20.6 26.6 41.7 109.4 104.5 359.9
08/05 09:30 13.9 75 8.99 9.5 11 19 1013.1 0 20.4 26.5 41.3 108.5 103.4 356.2
08/05 09:20 13.6 76 8.94 9.4 9 13 1013.1 0 20.3 26.5 41.3 108.4 103.2 355.2
08/05 09:10 13.1 78 8.9 9.3 11 13 1013.1 0 20.3 26.6 41.4 108.6 103.3 355.6
08/05 09:00 12.9 80 9.02 9.5 9 15 1013.1 0 20.5 26.8 42.0 110.2 105.2 362.2
08/05 08:50 12.6 81 8.96 9.4 9 11 1013.1 0 20.4 26.8 41.9 110.0 104.8 360.7
08/05 08:40 12.4 82 8.96 9.4 11 13 1013.1 0 20.4 26.9 42.0 110.3 105.1 361.6
08/05 08:30 12.3 82 8.9 9.3 15 22 1013.1 0 20.3 26.8 41.8 109.7 104.4 359.2
08/05 08:20 12.1 83 8.9 9.4 13 19 1013.1 0 20.3 26.9 41.9 110.0 104.7 360.2
08/05 08:10 11.8 85 8.95 9.3 15 17 1013.1 0 20.4 27.1 42.3 111.0 105.7 363.9
08/05 08:00 11.5 86 8.88 9.2 11 17 1013.1 0 20.3 27.0 42.1 110.7 105.2 362.0
08/05 07:50 11.5 86 8.88 9.2 13 17 1013.1 0 20.3 27.0 42.1 110.7 105.2 362.0
08/05 07:40 11.4 86 8.83 9.1 11 13 1013.1 0 20.2 27.0 42.0 110.2 104.6 360.0
08/05 07:30 11.4 86 8.83 9.1 11 15 1013.1 0 20.2 27.0 42.0 110.2 104.6 360.0
08/05 07:20 11.4 87 8.93 9.3 9 11 1013.1 0 20.4 27.2 42.4 111.4 106.0 364.9
08/05 07:10 11.3 87 8.88 9.2 9 11 1013.1 0 20.3 27.1 42.2 110.9 105.5 362.9
08/05 07:00 11.3 87 8.88 9.2 9 11 1013.1 0 20.3 27.1 42.2 110.9 105.5 362.9
08/05 06:50 11.3 86 8.77 9 9 13 1013.1 0 20.1 26.9 41.8 109.7 104.0 357.6
08/05 06:40 11.3 86 8.77 9 11 13 1013.1 0 20.1 26.9 41.8 109.7 104.0 357.6
08/05 06:30 11.3 86 8.77 9 13 17 1013.1 0 20.1 26.9 41.8 109.7 104.0 357.6
08/05 06:20 11.4 86 8.83 9.1 15 19 1013.1 0 20.2 27.0 42.0 110.2 104.6 360.0
08/05 06:10 11.3 86 8.77 9 15 19 1013.1 0 20.1 26.9 41.8 109.7 104.0 357.6
08/05 06:00 11.1 87 8.76 9 11 17 1013.1 0 20.1 27.0 41.8 109.9 104.1 358.0
08/05 05:50 11.1 87 8.76 9 13 15 1013.1 0 20.1 27.0 41.8 109.9 104.1 358.0
08/05 05:40 11 87 8.71 8.9 13 15 1013.1 0 20.0 26.9 41.7 109.5 103.5 356.1
08/05 05:30 11 86 8.61 8.8 13 17 1013.1 0 19.7 26.7 41.3 108.3 102.2 351.3
08/05 05:20 10.9 86 8.56 8.6 11 11 1013.1 0 19.6 26.7 41.1 107.9 101.6 349.3
08/05 05:10 10.9 86 8.56 8.6 11 13 1013.1 0 19.6 26.7 41.1 107.9 101.6 349.3
08/05 05:00 10.8 86 8.5 8.6 11 15 1013.1 0 19.5 26.6 40.9 107.4 100.9 346.9
08/05 04:50 10.8 86 8.5 8.5 11 15 1013.1 0 19.5 26.6 40.9 107.4 100.9 346.9
08/05 04:40 10.7 86 8.45 8.4 13 15 1013.1 0 19.4 26.6 40.8 107.0 100.4 344.9
08/05 04:30 10.6 86 8.4 8.4 11 15 1013.1 0 19.3 26.5 40.6 106.6 99.8 343.0
08/05 04:20 10.7 84 8.25 8.2 11 13 1013.1 0 19.0 26.2 39.9 104.8 97.6 335.4
08/05 04:10 10.6 84 8.2 8.1 11 15 1013.1 0 18.9 26.2 39.8 104.3 97.1 333.4
08/05 04:00 10.5 86 8.34 8.3 11 15 1013.1 0 19.2 26.4 40.4 106.0 99.1 340.5
08/05 03:50 10.3 86 8.24 8 9 11 1013.1 0 19.0 26.3 40.1 105.2 98.0 336.6
08/05 03:40 10.2 86 8.19 7.9 11 13 1013.1 0 18.9 26.3 39.9 104.8 97.4 334.7
08/05 03:30 10.1 85 8.04 7.7 9 13 1013.1 0 18.6 26.1 39.4 103.2 95.5 327.9
08/05 03:20 10.1 86 8.13 7.8 11 11 1013.1 0 18.8 26.2 39.7 104.2 96.7 332.2
08/05 03:10 10 86 8.08 7.7 13 15 1013.1 0 18.7 26.1 39.6 103.8 96.2 330.2
08/05 03:00 9.9 85 7.94 7.5 11 20 1013.1 0 18.4 25.9 39.0 102.4 94.4 324.0
08/05 02:50 9.9 84 7.85 7.3 9 11 1013.1 0 18.2 25.8 38.7 101.4 93.2 319.7
08/05 02:40 10.1 83 7.85 7.3 9 11 1013.1 0 18.2 25.7 38.6 101.2 92.9 318.9
08/05 02:30 10.3 82 7.85 7.4 11 19 1013.1 0 18.1 25.7 38.5 100.9 92.7 318.1
08/05 02:20 10.4 80 7.71 7.2 15 19 1013.1 0 17.8 25.4 37.9 99.2 90.7 311.1
08/05 02:10 10.6 80 7.81 7.3 15 19 1013.1 0 18.0 25.5 38.2 100.1 91.8 315.0
08/05 02:00 10.8 79 7.81 7.3 13 22 1013.1 0 18.0 25.5 38.1 99.8 91.6 314.2
08/05 01:50 10.8 79 7.81 7.3 17 20 1013.1 0 18.0 25.5 38.1 99.8 91.6 314.2
08/05 01:40 10.8 79 7.81 7.3 20 22 1013.1 0 18.0 25.5 38.1 99.8 91.6 314.2
08/05 01:30 10.7 79 7.76 7.2 17 22 1013.1 0 17.9 25.4 37.9 99.4 91.0 312.2
08/05 01:20 10.7 78 7.66 7 17 20 1013.1 0 17.7 25.3 37.5 98.3 89.7 307.6
08/05 01:10 10.7 79 7.76 7.2 15 17 1013.1 0 17.9 25.4 37.9 99.4 91.0 312.2
08/05 01:00 10.6 79 7.71 7.1 15 20 1013.1 0 17.8 25.4 37.8 99.0 90.5 310.3
08/05 00:50 10.4 79 7.62 6.9 15 19 1013.1 0 17.6 25.3 37.5 98.3 89.5 306.9
08/05 00:40 10.5 79 7.66 7 15 19 1013.1 0 17.7 25.3 37.6 98.6 89.9 308.4
08/05 00:30 10.3 80 7.66 7 13 20 1013.1 0 17.7 25.4 37.7 98.8 90.1 309.1
08/05 00:20 10.3 80 7.66 7 15 19 1013.1 0 17.7 25.4 37.7 98.8 90.1 309.1
08/05 00:10 10.1 80 7.57 6.8 11 11 1013.1 0 17.6 25.3 37.4 98.1 89.2 305.7
08/05 00:00 10.1 80 7.57 6.8 13 20 1013.1 0 17.6 25.3 37.4 98.1 89.2 305.7
07/05 23:50 10 80 7.52 6.7 13 15 1013.1 0 17.5 25.2 37.3 97.7 88.6 303.8
07/05 23:40 10 80 7.52 6.7 13 15 1013.1 0 17.5 25.2 37.3 97.7 88.6 303.8
07/05 23:30 10.1 78 7.38 6.4 13 19 1013.1 0 17.1 25.0 36.7 96.0 86.6 296.8
07/05 23:20 10.1 78 7.38 6.4 15 17 1013.1 0 17.1 25.0 36.7 96.0 86.6 296.8
07/05 23:10 10.1 77 7.28 6.2 13 15 1013.1 0 16.9 24.8 36.3 95.0 85.3 292.2
07/05 23:00 10 77 7.24 6.2 11 15 1013.1 0 16.8 24.8 36.1 94.7 84.9 290.7
07/05 22:50 10 75 7.05 5.9 9 11 1013.1 0 16.4 24.5 35.4 92.6 82.4 282.0
07/05 22:40 10 75 7.05 5.9 9 11 1013.1 0 16.4 24.5 35.4 92.6 82.4 282.0
07/05 22:30 10 76 7.14 6 11 15 1013.1 0 16.6 24.6 35.7 93.6 83.6 286.1
07/05 22:20 10 74 6.96 5.7 11 13 1013.1 0 16.2 24.3 35.0 91.7 81.2 277.8
07/05 22:10 10 74 6.96 5.7 11 15 1013.1 0 16.2 24.3 35.0 91.7 81.2 277.8
07/05 22:00 10 75 7.05 5.8 13 17 1013.1 0 16.4 24.5 35.4 92.6 82.4 282.0
07/05 21:50 10 74 6.96 5.7 15 15 1013.1 0 16.2 24.3 35.0 91.7 81.2 277.8
07/05 21:40 10.1 72 6.81 5.4 11 13 1013.1 0 15.9 24.1 34.4 90.0 79.2 270.6
07/05 21:30 10.1 73 6.9 5.5 13 17 1013.1 0 16.1 24.2 34.8 90.9 80.3 274.7
07/05 21:20 10.1 72 6.81 5.4 15 19 1013.1 0 15.9 24.1 34.4 90.0 79.2 270.6
07/05 21:10 10.1 72 6.81 5.4 13 15 1013.1 0 15.9 24.1 34.4 90.0 79.2 270.6
07/05 21:00 10.2 71 6.76 5.2 15 24 1013.1 0 15.8 23.9 34.2 89.3 78.4 268.0
07/05 20:50 10.2 70 6.66 5.1 13 13 1013.1 0 15.6 23.8 33.8 88.3 77.1 263.5
07/05 20:40 10.3 68 6.51 4.8 13 15 1013.1 0 15.3 23.5 33.1 86.6 75.1 256.4
07/05 20:30 10.4 69 6.65 5 17 24 1013.1 0 15.6 23.7 33.6 88.0 76.8 262.4
07/05 20:20 10.4 69 6.65 4.9 22 26 1013.1 0 15.6 23.7 33.6 88.0 76.8 262.4
07/05 20:10 10.4 69 6.65 4.9 17 19 1013.1 0 15.6 23.7 33.6 88.0 76.8 262.4
07/05 20:00 10.4 68 6.56 4.8 19 30 1013.1 0 15.4 23.6 33.3 87.0 75.6 258.3

Last Refresh: 08-May-2026 12:08:15

Bureau of Meteorology